Stephen Scott — WCW8842 — position and weather

sailwx.info

Track history (hours):
 
Tides and Currents Weather Stations Pressure Air Temp Water Temp Dewpoint Dewpoint Depression Visibility Wind Speed Wind Dir Waves Ship Positions

Stephen Scott

Owner: H A REINAUER INC, STATEN ISLAND, NY. More information available from US FCC via Universal Licensing System and Coast Guard Vessel Documentation Center.

Last reported at 2016-May-29 13:33 UTC. Time now 2016-May-29 13:32 UTC.
Position N 40°40' W 074°02'.

Length 30 m; draft 3.5 m.

Type: Tug. MMSI: 366245490.

Date/timePositionNaut miles runAvg speedWind from/ knotsBaromVisibWave heightAir tempDewpointWater temp
2016-May-29 13:33N 40°40' W 074°02'0 0.0
2016-May-29 12:30N 40°40' W 074°02'0 0.0
2016-May-29 11:32N 40°40' W 074°02'1 1.0
2016-May-29 10:33N 40°40' W 074°01'0 0.0
2016-May-29 09:33N 40°40' W 074°01'0 0.0
2016-May-29 08:33N 40°40' W 074°01'0 0.0
2016-May-29 07:33N 40°40' W 074°01'0 0.0
2016-May-29 06:33N 40°40' W 074°01'0 0.0
2016-May-29 05:33N 40°40' W 074°01'0 0.0
2016-May-29 04:33N 40°40' W 074°01'0 0.0
2016-May-29 03:33N 40°40' W 074°01'0 0.0
2016-May-29 02:33N 40°40' W 074°01'0 0.0
2016-May-29 01:33N 40°40' W 074°01'1 1.0
2016-May-29 00:33N 40°40' W 074°02'0 0.0
2016-May-28 23:33N 40°40' W 074°02'0 0.0
2016-May-28 22:33N 40°40' W 074°02'0 0.0
2016-May-28 21:33N 40°40' W 074°02'4 3.6
2016-May-28 20:34N 40°39' W 074°07'4 0.1
2016-May-26 17:28N 40°37' W 074°12'5 5.2
2016-May-26 16:33N 40°39' W 074°07'2 1.8
2016-May-26 15:33N 40°40' W 074°08'1 1.3
2016-May-26 14:33N 40°39' W 074°09'4 3.0
2016-May-26 13:11N 40°36' W 074°12'0 0.0
2016-May-26 12:32N 40°36' W 074°12'1 0.3
2016-May-26 10:29N 40°36' W 074°12'1 0.6
2016-May-26 09:17N 40°36' W 074°12'1 1.9
2016-May-26 08:33N 40°37' W 074°12'6 6.5
2016-May-26 07:33N 40°42' W 074°07'5 5.2
2016-May-26 06:33N 40°38' W 074°12'3 2.5
2016-May-26 05:28N 40°36' W 074°12'0 0.0
2016-May-26 04:29N 40°36' W 074°12'5 5.6
2016-May-26 03:32N 40°39' W 074°07'0 0.1
2016-May-26 02:32N 40°39' W 074°07'4 4.4
2016-May-26 01:33N 40°40' W 074°01'0 0.0
2016-May-26 00:32N 40°40' W 074°01'0 0.1
2016-May-25 23:33N 40°40' W 074°01'0 0.2
2016-May-25 22:33N 40°40' W 074°01'5 4.8
2016-May-25 21:33N 40°39' W 074°07'1 0.9
2016-May-25 20:33N 40°39' W 074°06'0 0.0
2016-May-25 19:31N 40°39' W 074°06'2 2.4
2016-May-25 18:31N 40°40' W 074°09'0 0.3
2016-May-25 17:33N 40°40' W 074°08'2 1.6
2016-May-25 16:33N 40°38' W 074°08'0 0.1
2016-May-25 15:32N 40°39' W 074°08'0 0.1
2016-May-25 14:33N 40°38' W 074°08'0 0.0
2016-May-25 13:33N 40°38' W 074°08'0 0.0
2016-May-25 12:33N 40°38' W 074°08'0 0.0
2016-May-25 11:32N 40°38' W 074°08'0 0.0
2016-May-25 10:25N 40°38' W 074°08'4 4.1
2016-May-25 09:33N 40°38' W 074°12'0 0.2
2016-May-25 08:16N 40°38' W 074°12'2 3.0
2016-May-25 07:33N 40°39' W 074°10'2 1.5
2016-May-25 06:33N 40°38' W 074°08'0 0.0
2016-May-25 05:31N 40°38' W 074°08'0 0.0
2016-May-25 04:31N 40°38' W 074°08'0 0.0
2016-May-25 03:33N 40°38' W 074°08'0 0.0
2016-May-25 02:33N 40°38' W 074°08'0 0.0
2016-May-25 01:33N 40°38' W 074°08'0 0.0
2016-May-25 00:33N 40°38' W 074°08'0 0.0
2016-May-24 23:32N 40°38' W 074°08'0 0.0
2016-May-24 22:32N 40°38' W 074°08'0 0.0
2016-May-24 21:30N 40°38' W 074°08'2 2.5
2016-May-24 20:33N 40°39' W 074°05'3 3.0
2016-May-24 19:34N 40°40' W 074°01'1 0.9
2016-May-24 18:33N 40°40' W 074°02'1 0.9
2016-May-24 17:33N 40°40' W 074°01'0 0.2
2016-May-24 16:33N 40°40' W 074°01'0 0.3
2016-May-24 15:34N 40°40' W 074°01'5 5.2
2016-May-24 14:33N 40°38' W 074°08'0 0.0
2016-May-24 13:33N 40°38' W 074°08'0 0.0
2016-May-24 12:33N 40°38' W 074°08'0 0.0
2016-May-24 11:34N 40°38' W 074°08'0 0.0
2016-May-24 10:33N 40°38' W 074°08'0 0.0
2016-May-24 09:33N 40°38' W 074°08'0 0.0
2016-May-24 08:33N 40°38' W 074°08'0 0.0
2016-May-24 07:33N 40°38' W 074°08'0 0.0
2016-May-24 06:33N 40°38' W 074°08'0 0.0
2016-May-24 05:31N 40°38' W 074°08'0 0.0
2016-May-24 04:32N 40°38' W 074°08'0 0.0
2016-May-24 03:33N 40°38' W 074°08'0 0.0
2016-May-24 01:33N 40°38' W 074°08'0 0.0
2016-May-24 00:33N 40°38' W 074°08'0 0.0
2016-May-23 23:33N 40°38' W 074°08'0 0.0
2016-May-23 22:33N 40°38' W 074°08'0 0.1
2016-May-23 21:33N 40°38' W 074°08'0 0.1
2016-May-23 20:33N 40°38' W 074°08'0 0.0
2016-May-23 19:33N 40°38' W 074°08'0 0.0
2016-May-23 18:33N 40°38' W 074°08'0 0.0
2016-May-23 17:33N 40°38' W 074°08'0 0.0
2016-May-23 16:33N 40°38' W 074°08'0 0.0
2016-May-23 15:33N 40°38' W 074°08'0 0.0
2016-May-23 14:33N 40°38' W 074°08'0 0.0
2016-May-23 13:33N 40°38' W 074°08'0 0.0
2016-May-23 12:33N 40°38' W 074°08'0 0.0
2016-May-23 11:33N 40°38' W 074°08'0 0.0
2016-May-23 10:33N 40°38' W 074°08'0 0.0
2016-May-23 09:33N 40°38' W 074°08'0 0.1
2016-May-23 08:33N 40°39' W 074°08'0 0.0
2016-May-21 19:25N 40°38' W 074°08'0 0.0
2016-May-21 18:32N 40°38' W 074°08'0 0.0
2016-May-21 17:32N 40°38' W 074°08'0 0.0
2016-May-21 16:27N 40°38' W 074°08'0 0.0
2016-May-21 15:33N 40°38' W 074°08'0 0.0
2016-May-21 14:32N 40°38' W 074°08'0 0.0
2016-May-21 13:33N 40°38' W 074°08'0 0.0
2016-May-21 12:33N 40°38' W 074°08'0 0.0
2016-May-21 11:33N 40°38' W 074°08'0 0.0
2016-May-21 10:23N 40°38' W 074°08'0 0.0
2016-May-21 09:32N 40°38' W 074°08'0 0.0
2016-May-21 08:33N 40°38' W 074°08'0 0.0
2016-May-21 07:33N 40°38' W 074°08'0 0.0
2016-May-21 06:33N 40°38' W 074°08'0 0.0
2016-May-21 04:33N 40°38' W 074°08'0 0.0
2016-May-21 03:26N 40°38' W 074°08'0 0.0
2016-May-21 02:32N 40°38' W 074°08'0 0.0
2016-May-21 01:33N 40°38' W 074°08'0 0.0
2016-May-21 00:14N 40°38' W 074°08'0 0.0
2016-May-20 23:32N 40°38' W 074°08'0 0.0
2016-May-20 22:32N 40°38' W 074°08'0 0.0
2016-May-20 21:30N 40°38' W 074°08'0 0.0
2016-May-20 20:31N 40°38' W 074°08'0 0.0
2016-May-20 19:33N 40°38' W 074°08'0 0.0
2016-May-20 18:33N 40°38' W 074°08'0 0.0
2016-May-20 17:29N 40°38' W 074°08'0 0.0
2016-May-20 16:31N 40°38' W 074°08'0 0.0
2016-May-20 15:33N 40°38' W 074°08'0 0.0
2016-May-20 14:33N 40°38' W 074°08'0 0.0
2016-May-20 13:33N 40°38' W 074°08'0 0.0
2016-May-20 12:32N 40°38' W 074°08'0 0.0
2016-May-20 11:33N 40°38' W 074°08'0 0.0
2016-May-20 10:03N 40°38' W 074°08'0 0.0
2016-May-20 09:33N 40°38' W 074°08'0 0.0
2016-May-20 08:18N 40°38' W 074°08'0 0.0
2016-May-20 07:18N 40°38' W 074°08'0 0.0
2016-May-20 06:31N 40°38' W 074°08'0 0.0
2016-May-20 04:33N 40°38' W 074°08'0 0.0
2016-May-20 03:31N 40°38' W 074°08'0 0.0
2016-May-20 02:03N 40°38' W 074°08'0 0.0
2016-May-20 01:30N 40°38' W 074°08'0 0.0
2016-May-20 00:32N 40°38' W 074°08'0 0.0
2016-May-19 23:33N 40°38' W 074°08'0 0.0
2016-May-19 22:33N 40°38' W 074°08'0 0.0
2016-May-19 21:20N 40°38' W 074°08'0 0.0
2016-May-19 20:23N 40°38' W 074°08'0 0.0
2016-May-19 19:32N 40°38' W 074°08'0 0.0
2016-May-19 18:31N 40°38' W 074°08'0 0.0
2016-May-19 17:25N 40°38' W 074°08'0 0.0
2016-May-19 16:29N 40°38' W 074°08'0 0.0
2016-May-19 15:33N 40°38' W 074°08'0 0.0
2016-May-19 14:33N 40°38' W 074°08'0 0.0
2016-May-19 13:29N 40°38' W 074°08'0 0.0
2016-May-19 12:32N 40°38' W 074°08'  
Track history (hours):
 
Tides and Currents Weather Stations Pressure Air Temp Water Temp Dewpoint Dewpoint Depression Visibility Wind Speed Wind Dir Waves Ship Positions

Stephen Scott

Owner: H A REINAUER INC, STATEN ISLAND, NY. More information available from US FCC via Universal Licensing System and Coast Guard Vessel Documentation Center.

Last reported at 2016-May-29 13:33 UTC. Time now 2016-May-29 13:32 UTC.
Position N 40°40' W 074°02'.

Length 30 m; draft 3.5 m.

Type: Tug. MMSI: 366245490.

Date/timePositionNaut miles runAvg speedWind from/ knotsBaromVisibWave heightAir tempDewpointWater temp
2016-May-29 13:33N 40°40' W 074°02'0 0.0
2016-May-29 12:30N 40°40' W 074°02'0 0.0
2016-May-29 11:32N 40°40' W 074°02'1 1.0
2016-May-29 10:33N 40°40' W 074°01'0 0.0
2016-May-29 09:33N 40°40' W 074°01'0 0.0
2016-May-29 08:33N 40°40' W 074°01'0 0.0
2016-May-29 07:33N 40°40' W 074°01'0 0.0
2016-May-29 06:33N 40°40' W 074°01'0 0.0
2016-May-29 05:33N 40°40' W 074°01'0 0.0
2016-May-29 04:33N 40°40' W 074°01'0 0.0
2016-May-29 03:33N 40°40' W 074°01'0 0.0
2016-May-29 02:33N 40°40' W 074°01'0 0.0
2016-May-29 01:33N 40°40' W 074°01'1 1.0
2016-May-29 00:33N 40°40' W 074°02'0 0.0
2016-May-28 23:33N 40°40' W 074°02'0 0.0
2016-May-28 22:33N 40°40' W 074°02'0 0.0
2016-May-28 21:33N 40°40' W 074°02'4 3.6
2016-May-28 20:34N 40°39' W 074°07'4 0.1
2016-May-26 17:28N 40°37' W 074°12'5 5.2
2016-May-26 16:33N 40°39' W 074°07'2 1.8
2016-May-26 15:33N 40°40' W 074°08'1 1.3
2016-May-26 14:33N 40°39' W 074°09'4 3.0
2016-May-26 13:11N 40°36' W 074°12'0 0.0
2016-May-26 12:32N 40°36' W 074°12'1 0.3
2016-May-26 10:29N 40°36' W 074°12'1 0.6
2016-May-26 09:17N 40°36' W 074°12'1 1.9
2016-May-26 08:33N 40°37' W 074°12'6 6.5
2016-May-26 07:33N 40°42' W 074°07'5 5.2
2016-May-26 06:33N 40°38' W 074°12'3 2.5
2016-May-26 05:28N 40°36' W 074°12'0 0.0
2016-May-26 04:29N 40°36' W 074°12'5 5.6
2016-May-26 03:32N 40°39' W 074°07'0 0.1
2016-May-26 02:32N 40°39' W 074°07'4 4.4
2016-May-26 01:33N 40°40' W 074°01'0 0.0
2016-May-26 00:32N 40°40' W 074°01'0 0.1
2016-May-25 23:33N 40°40' W 074°01'0 0.2
2016-May-25 22:33N 40°40' W 074°01'5 4.8
2016-May-25 21:33N 40°39' W 074°07'1 0.9
2016-May-25 20:33N 40°39' W 074°06'0 0.0
2016-May-25 19:31N 40°39' W 074°06'2 2.4
2016-May-25 18:31N 40°40' W 074°09'0 0.3
2016-May-25 17:33N 40°40' W 074°08'2 1.6
2016-May-25 16:33N 40°38' W 074°08'0 0.1
2016-May-25 15:32N 40°39' W 074°08'0 0.1
2016-May-25 14:33N 40°38' W 074°08'0 0.0
2016-May-25 13:33N 40°38' W 074°08'0 0.0
2016-May-25 12:33N 40°38' W 074°08'0 0.0
2016-May-25 11:32N 40°38' W 074°08'0 0.0
2016-May-25 10:25N 40°38' W 074°08'4 4.1
2016-May-25 09:33N 40°38' W 074°12'0 0.2
2016-May-25 08:16N 40°38' W 074°12'2 3.0
2016-May-25 07:33N 40°39' W 074°10'2 1.5
2016-May-25 06:33N 40°38' W 074°08'0 0.0
2016-May-25 05:31N 40°38' W 074°08'0 0.0
2016-May-25 04:31N 40°38' W 074°08'0 0.0
2016-May-25 03:33N 40°38' W 074°08'0 0.0
2016-May-25 02:33N 40°38' W 074°08'0 0.0
2016-May-25 01:33N 40°38' W 074°08'0 0.0
2016-May-25 00:33N 40°38' W 074°08'0 0.0
2016-May-24 23:32N 40°38' W 074°08'0 0.0
2016-May-24 22:32N 40°38' W 074°08'0 0.0
2016-May-24 21:30N 40°38' W 074°08'2 2.5
2016-May-24 20:33N 40°39' W 074°05'3 3.0
2016-May-24 19:34N 40°40' W 074°01'1 0.9
2016-May-24 18:33N 40°40' W 074°02'1 0.9
2016-May-24 17:33N 40°40' W 074°01'0 0.2
2016-May-24 16:33N 40°40' W 074°01'0 0.3
2016-May-24 15:34N 40°40' W 074°01'5 5.2
2016-May-24 14:33N 40°38' W 074°08'0 0.0
2016-May-24 13:33N 40°38' W 074°08'0 0.0
2016-May-24 12:33N 40°38' W 074°08'0 0.0
2016-May-24 11:34N 40°38' W 074°08'0 0.0
2016-May-24 10:33N 40°38' W 074°08'0 0.0
2016-May-24 09:33N 40°38' W 074°08'0 0.0
2016-May-24 08:33N 40°38' W 074°08'0 0.0
2016-May-24 07:33N 40°38' W 074°08'0 0.0
2016-May-24 06:33N 40°38' W 074°08'0 0.0
2016-May-24 05:31N 40°38' W 074°08'0 0.0
2016-May-24 04:32N 40°38' W 074°08'0 0.0
2016-May-24 03:33N 40°38' W 074°08'0 0.0
2016-May-24 01:33N 40°38' W 074°08'0 0.0
2016-May-24 00:33N 40°38' W 074°08'0 0.0
2016-May-23 23:33N 40°38' W 074°08'0 0.0
2016-May-23 22:33N 40°38' W 074°08'0 0.1
2016-May-23 21:33N 40°38' W 074°08'0 0.1
2016-May-23 20:33N 40°38' W 074°08'0 0.0
2016-May-23 19:33N 40°38' W 074°08'0 0.0
2016-May-23 18:33N 40°38' W 074°08'0 0.0
2016-May-23 17:33N 40°38' W 074°08'0 0.0
2016-May-23 16:33N 40°38' W 074°08'0 0.0
2016-May-23 15:33N 40°38' W 074°08'0 0.0
2016-May-23 14:33N 40°38' W 074°08'0 0.0
2016-May-23 13:33N 40°38' W 074°08'0 0.0
2016-May-23 12:33N 40°38' W 074°08'0 0.0
2016-May-23 11:33N 40°38' W 074°08'0 0.0
2016-May-23 10:33N 40°38' W 074°08'0 0.0
2016-May-23 09:33N 40°38' W 074°08'0 0.1
2016-May-23 08:33N 40°39' W 074°08'0 0.0
2016-May-21 19:25N 40°38' W 074°08'0 0.0
2016-May-21 18:32N 40°38' W 074°08'0 0.0
2016-May-21 17:32N 40°38' W 074°08'0 0.0
2016-May-21 16:27N 40°38' W 074°08'0 0.0
2016-May-21 15:33N 40°38' W 074°08'0 0.0
2016-May-21 14:32N 40°38' W 074°08'0 0.0
2016-May-21 13:33N 40°38' W 074°08'0 0.0
2016-May-21 12:33N 40°38' W 074°08'0 0.0
2016-May-21 11:33N 40°38' W 074°08'0 0.0
2016-May-21 10:23N 40°38' W 074°08'0 0.0
2016-May-21 09:32N 40°38' W 074°08'0 0.0
2016-May-21 08:33N 40°38' W 074°08'0 0.0
2016-May-21 07:33N 40°38' W 074°08'0 0.0
2016-May-21 06:33N 40°38' W 074°08'0 0.0
2016-May-21 04:33N 40°38' W 074°08'0 0.0
2016-May-21 03:26N 40°38' W 074°08'0 0.0
2016-May-21 02:32N 40°38' W 074°08'0 0.0
2016-May-21 01:33N 40°38' W 074°08'0 0.0
2016-May-21 00:14N 40°38' W 074°08'0 0.0
2016-May-20 23:32N 40°38' W 074°08'0 0.0
2016-May-20 22:32N 40°38' W 074°08'0 0.0
2016-May-20 21:30N 40°38' W 074°08'0 0.0
2016-May-20 20:31N 40°38' W 074°08'0 0.0
2016-May-20 19:33N 40°38' W 074°08'0 0.0
2016-May-20 18:33N 40°38' W 074°08'0 0.0
2016-May-20 17:29N 40°38' W 074°08'0 0.0
2016-May-20 16:31N 40°38' W 074°08'0 0.0
2016-May-20 15:33N 40°38' W 074°08'0 0.0
2016-May-20 14:33N 40°38' W 074°08'0 0.0
2016-May-20 13:33N 40°38' W 074°08'0 0.0
2016-May-20 12:32N 40°38' W 074°08'0 0.0
2016-May-20 11:33N 40°38' W 074°08'0 0.0
2016-May-20 10:03N 40°38' W 074°08'0 0.0
2016-May-20 09:33N 40°38' W 074°08'0 0.0
2016-May-20 08:18N 40°38' W 074°08'0 0.0
2016-May-20 07:18N 40°38' W 074°08'0 0.0
2016-May-20 06:31N 40°38' W 074°08'0 0.0
2016-May-20 04:33N 40°38' W 074°08'0 0.0
2016-May-20 03:31N 40°38' W 074°08'0 0.0
2016-May-20 02:03N 40°38' W 074°08'0 0.0
2016-May-20 01:30N 40°38' W 074°08'0 0.0
2016-May-20 00:32N 40°38' W 074°08'0 0.0
2016-May-19 23:33N 40°38' W 074°08'0 0.0
2016-May-19 22:33N 40°38' W 074°08'0 0.0
2016-May-19 21:20N 40°38' W 074°08'0 0.0
2016-May-19 20:23N 40°38' W 074°08'0 0.0
2016-May-19 19:32N 40°38' W 074°08'0 0.0
2016-May-19 18:31N 40°38' W 074°08'0 0.0
2016-May-19 17:25N 40°38' W 074°08'0 0.0
2016-May-19 16:29N 40°38' W 074°08'0 0.0
2016-May-19 15:33N 40°38' W 074°08'0 0.0
2016-May-19 14:33N 40°38' W 074°08'0 0.0
2016-May-19 13:29N 40°38' W 074°08'0 0.0
2016-May-19 12:32N 40°38' W 074°08'  

Dump ship's entire track history